createdAt,value
2019-05-21T00:00:46.370Z,35.73
2019-05-21T00:03:14.842Z,33.23
2019-05-21T00:05:42.738Z,33.40
2019-05-21T00:08:09.965Z,35.23
2019-05-21T00:10:37.446Z,33.97
2019-05-21T00:13:05.917Z,33.10
2019-05-21T00:15:36.428Z,34.20
2019-05-21T00:18:04.049Z,35.23
2019-05-21T00:20:31.381Z,32.80
2019-05-21T00:22:58.627Z,33.40
2019-05-21T00:25:26.160Z,33.27
2019-05-21T00:27:59.689Z,33.13
2019-05-21T00:31:05.726Z,32.50
2019-05-21T00:34:10.055Z,33.20
2019-05-21T00:37:19.279Z,32.87
2019-05-21T00:40:25.977Z,33.93
2019-05-21T00:42:53.533Z,32.93
2019-05-21T00:45:20.873Z,32.77
2019-05-21T00:47:48.953Z,32.70
2019-05-21T00:50:17.144Z,30.37
2019-05-21T00:52:47.403Z,32.53
2019-05-21T00:55:14.450Z,31.37
2019-05-21T00:57:42.181Z,31.83
2019-05-21T01:00:10.606Z,29.93
2019-05-21T01:02:38.416Z,31.00
2019-05-21T01:05:07.529Z,28.60
2019-05-21T01:07:34.838Z,29.87
2019-05-21T01:10:02.654Z,28.33
2019-05-21T01:12:31.148Z,27.90
2019-05-21T01:14:58.071Z,27.67
2019-05-21T01:17:26.357Z,28.43
2019-05-21T01:19:53.834Z,27.93
2019-05-21T01:22:21.118Z,26.53
2019-05-21T01:24:49.125Z,26.23
2019-05-21T01:27:16.164Z,25.23
2019-05-21T01:29:43.256Z,24.27
2019-05-21T01:32:13.071Z,24.83
2019-05-21T01:34:40.039Z,24.20
2019-05-21T01:37:07.555Z,23.23
2019-05-21T01:39:35.256Z,23.27
2019-05-21T01:42:02.429Z,21.77
2019-05-21T01:44:31.361Z,21.47
2019-05-21T01:46:59.326Z,22.50
2019-05-21T01:49:27.170Z,20.93
2019-05-21T01:51:54.863Z,21.50
2019-05-21T01:54:21.896Z,20.00
2019-05-21T01:56:49.275Z,20.43
2019-05-21T01:59:17.334Z,20.30
2019-05-21T02:01:45.283Z,20.10
2019-05-21T02:04:13.585Z,19.60
2019-05-21T02:06:41.141Z,19.67
2019-05-21T02:09:09.007Z,19.10
2019-05-21T02:11:36.000Z,19.03
2019-05-21T02:14:05.422Z,18.47
2019-05-21T02:16:34.000Z,17.27
2019-05-21T02:19:01.702Z,17.93
2019-05-21T02:21:28.860Z,16.50
2019-05-21T02:23:57.643Z,16.40
2019-05-21T02:26:25.290Z,16.47
2019-05-21T02:28:53.265Z,15.67
2019-05-21T02:31:21.036Z,15.70
2019-05-21T02:33:48.586Z,15.17
2019-05-21T02:36:18.745Z,15.17
2019-05-21T02:38:46.252Z,14.67
2019-05-21T02:41:13.917Z,14.83
2019-05-21T02:43:41.640Z,13.23
2019-05-21T02:46:08.707Z,12.70
2019-05-21T02:48:36.883Z,12.57
2019-05-21T02:51:04.588Z,12.57
2019-05-21T02:53:34.603Z,13.30
2019-05-21T02:56:02.937Z,12.43
2019-05-21T02:58:32.472Z,11.33
2019-05-21T03:01:24.902Z,11.80
2019-05-21T03:03:52.839Z,12.27
2019-05-21T03:06:21.083Z,12.20
2019-05-21T03:08:48.935Z,11.53
2019-05-21T03:11:17.207Z,11.73
2019-05-21T03:13:44.297Z,11.20
2019-05-21T03:16:12.385Z,12.20
2019-05-21T03:18:41.547Z,12.43
2019-05-21T03:21:09.491Z,15.93
2019-05-21T03:23:36.754Z,11.93
2019-05-21T03:26:04.406Z,12.93
2019-05-21T03:28:31.723Z,13.97
2019-05-21T03:31:00.491Z,15.43
2019-05-21T03:33:28.456Z,13.50
2019-05-21T03:35:56.517Z,14.00
2019-05-21T03:38:24.965Z,14.73
2019-05-21T03:40:52.542Z,14.97
2019-05-21T03:43:20.845Z,14.73
2019-05-21T03:45:48.235Z,13.83
2019-05-21T03:48:15.403Z,15.83
2019-05-21T03:50:44.241Z,14.83
2019-05-21T03:53:11.766Z,15.17
2019-05-21T03:55:39.169Z,15.87
2019-05-21T03:58:07.082Z,16.50
2019-05-21T04:00:34.105Z,14.70
2019-05-21T04:03:02.658Z,15.63
2019-05-21T04:05:30.671Z,14.83
2019-05-21T04:07:58.775Z,14.40
2019-05-21T04:10:27.355Z,15.27
2019-05-21T04:13:08.021Z,14.77
2019-05-21T04:15:43.550Z,14.47
2019-05-21T04:18:17.423Z,15.50
2019-05-21T04:20:45.021Z,18.23
2019-05-21T04:23:13.476Z,17.83
2019-05-21T04:25:40.456Z,17.30
2019-05-21T04:28:08.382Z,15.87
2019-05-21T04:30:37.350Z,17.10
2019-05-21T04:33:05.401Z,18.13
2019-05-21T04:35:32.797Z,17.57
2019-05-21T04:38:00.044Z,16.97
2019-05-21T04:40:28.047Z,16.10
2019-05-21T04:43:01.720Z,16.10
2019-05-21T04:45:26.779Z,14.90
2019-05-21T04:47:54.255Z,14.90
2019-05-21T04:50:22.420Z,14.60
2019-05-21T04:52:49.800Z,14.77
2019-05-21T04:55:20.954Z,14.43
2019-05-21T04:57:48.406Z,13.50
2019-05-21T05:00:17.689Z,15.00
2019-05-21T05:02:45.460Z,14.17
2019-05-21T05:05:13.000Z,12.70
2019-05-21T05:07:42.831Z,11.77
2019-05-21T05:10:10.596Z,11.80
2019-05-21T05:12:38.759Z,11.20
2019-05-21T05:15:06.444Z,10.73
2019-05-21T05:17:33.622Z,11.33
2019-05-21T05:20:02.369Z,11.53
2019-05-21T05:22:29.824Z,10.73
2019-05-21T05:24:57.877Z,10.83
2019-05-21T05:27:25.492Z,10.53
2019-05-21T05:29:52.814Z,12.03
2019-05-21T05:32:21.502Z,10.30
2019-05-21T05:34:51.492Z,10.33
2019-05-21T05:37:18.637Z,10.77
2019-05-21T05:39:46.835Z,10.00
2019-05-21T05:42:14.334Z,8.97
2019-05-21T05:44:43.194Z,9.13
2019-05-21T05:47:11.497Z,9.57
2019-05-21T05:49:44.475Z,9.17
2019-05-21T05:52:12.406Z,8.97
2019-05-21T05:54:40.165Z,8.90
2019-05-21T05:57:09.121Z,9.10
2019-05-21T05:59:36.921Z,7.93
2019-05-21T06:02:06.960Z,8.50
2019-05-21T06:04:34.219Z,7.90
2019-05-21T06:07:01.975Z,7.13
2019-05-21T06:09:29.793Z,6.87
2019-05-21T06:11:57.706Z,6.80
2019-05-21T06:14:26.717Z,7.40
2019-05-21T06:16:54.913Z,7.43
2019-05-21T06:19:29.169Z,6.90
2019-05-21T06:21:56.719Z,7.10
2019-05-21T06:24:24.917Z,6.83
2019-05-21T06:26:53.527Z,6.57
2019-05-21T06:29:20.698Z,6.80
2019-05-21T06:31:55.674Z,5.97
2019-05-21T06:48:52.193Z,5.30
2019-05-21T06:51:19.552Z,5.70
2019-05-21T06:53:47.119Z,5.70
2019-05-21T06:56:14.640Z,5.77
2019-05-21T06:58:41.799Z,5.50
2019-05-21T07:01:09.525Z,6.00
2019-05-21T07:03:37.285Z,5.70
2019-05-21T07:06:04.574Z,5.53
2019-05-21T07:08:35.229Z,5.77
2019-05-21T07:11:09.157Z,5.90
2019-05-21T07:13:37.857Z,5.43
2019-05-21T07:16:05.066Z,5.80
2019-05-21T07:18:34.180Z,5.77
2019-05-21T07:21:02.029Z,4.93
2019-05-21T07:23:37.661Z,5.70
2019-05-21T07:26:04.777Z,5.13
2019-05-21T07:28:32.425Z,5.10
2019-05-21T07:30:59.610Z,4.90
2019-05-21T07:33:27.661Z,5.33
2019-05-21T07:35:56.137Z,4.70
2019-05-21T07:38:23.640Z,4.87
2019-05-21T07:40:51.034Z,4.33
2019-05-21T07:45:58.547Z,4.03
2019-05-21T07:48:38.088Z,3.87
2019-05-21T07:51:05.566Z,3.67
2019-05-21T07:53:33.043Z,3.63
2019-05-21T07:56:02.701Z,3.73
2019-05-21T07:58:30.724Z,3.33
2019-05-21T08:01:01.657Z,3.57
2019-05-21T08:03:29.755Z,3.90
2019-05-21T08:05:59.140Z,3.63
2019-05-21T08:08:26.427Z,3.57
2019-05-21T08:10:53.628Z,3.60
2019-05-21T08:13:21.619Z,3.40
2019-05-21T08:15:49.060Z,3.67
2019-05-21T08:18:16.826Z,3.37
2019-05-21T08:20:44.934Z,3.40
2019-05-21T08:23:12.574Z,3.70
2019-05-21T08:25:40.756Z,3.60
2019-05-21T08:28:08.660Z,3.53
2019-05-21T08:30:35.881Z,3.70
2019-05-21T08:33:04.452Z,3.50
2019-05-21T08:35:31.912Z,3.80
2019-05-21T08:37:59.407Z,3.97
2019-05-21T08:40:26.811Z,3.60
2019-05-21T08:42:54.451Z,3.87
2019-05-21T08:45:23.670Z,3.70
2019-05-21T08:47:51.425Z,3.57
2019-05-21T08:50:21.262Z,8.50
2019-05-21T08:52:50.037Z,3.87
2019-05-21T08:55:17.620Z,3.60
2019-05-21T08:58:05.508Z,3.87
2019-05-21T09:00:21.337Z,3.63
2019-05-21T09:02:48.924Z,3.70
2019-05-21T09:05:17.226Z,4.00
2019-05-21T09:07:52.333Z,3.60
2019-05-21T09:10:16.917Z,3.80
2019-05-21T09:12:44.449Z,3.67
2019-05-21T09:15:12.136Z,4.17
2019-05-21T09:17:39.525Z,4.07
2019-05-21T09:20:08.578Z,4.03
2019-05-21T09:22:36.195Z,3.40
2019-05-21T09:25:04.381Z,4.03
2019-05-21T09:27:32.094Z,4.03
2019-05-21T09:30:00.448Z,3.90
2019-05-21T09:32:27.985Z,3.60
2019-05-21T09:34:54.997Z,3.73
2019-05-21T09:37:22.655Z,4.03
2019-05-21T09:39:50.005Z,3.80
2019-05-21T09:42:18.342Z,4.33
2019-05-21T09:44:47.042Z,4.20
2019-05-21T09:47:15.431Z,4.63
2019-05-21T09:49:43.467Z,4.00
2019-05-21T09:52:10.632Z,4.60
2019-05-21T09:54:37.789Z,4.23
2019-05-21T09:57:07.518Z,4.00
2019-05-21T10:00:00.863Z,4.40
2019-05-21T10:02:29.987Z,4.17
2019-05-21T10:04:57.094Z,3.67
2019-05-21T10:07:38.861Z,4.13
2019-05-21T10:09:53.951Z,3.63
2019-05-21T10:12:21.817Z,3.73
2019-05-21T10:14:49.669Z,3.97
2019-05-21T10:17:17.201Z,3.97
2019-05-21T10:19:46.883Z,3.60
2019-05-21T10:22:14.411Z,20.27
2019-05-21T10:24:42.378Z,4.33
2019-05-21T10:27:09.877Z,3.53
2019-05-21T10:29:37.054Z,3.50
2019-05-21T10:32:05.387Z,4.17
2019-05-21T10:34:33.179Z,3.83
2019-05-21T10:37:01.473Z,3.53
2019-05-21T10:39:29.037Z,3.50
2019-05-21T10:41:56.185Z,3.60
2019-05-21T10:44:23.883Z,3.00
2019-05-21T10:46:51.556Z,3.20
2019-05-21T10:49:18.541Z,3.10
2019-05-21T10:51:47.010Z,3.50
2019-05-21T10:54:14.346Z,3.20
2019-05-21T10:56:48.050Z,3.10
2019-05-21T10:59:10.905Z,3.40
2019-05-21T11:01:46.575Z,3.37
2019-05-21T11:04:22.247Z,2.70
2019-05-21T11:06:50.654Z,2.80
2019-05-21T11:09:20.244Z,2.90
2019-05-21T11:11:48.612Z,3.20
2019-05-21T11:14:16.026Z,2.77
2019-05-21T11:16:43.813Z,3.10
2019-05-21T11:19:11.966Z,2.93
2019-05-21T11:21:39.248Z,3.07
2019-05-21T11:24:06.707Z,2.83
2019-05-21T11:26:34.054Z,2.70
2019-05-21T11:29:01.404Z,3.50
2019-05-21T11:31:30.073Z,2.90
2019-05-21T11:33:57.168Z,3.23
2019-05-21T11:36:24.369Z,3.00
2019-05-21T11:38:52.550Z,3.27
2019-05-21T11:41:20.320Z,3.20
2019-05-21T11:43:47.906Z,3.10
2019-05-21T11:46:16.060Z,3.23
2019-05-21T11:48:44.427Z,3.33
2019-05-21T11:51:13.543Z,3.33
2019-05-21T11:53:41.186Z,3.33
2019-05-21T11:56:08.528Z,3.20
2019-05-21T11:58:39.722Z,3.40
2019-05-21T12:01:06.386Z,3.30
2019-05-21T12:03:34.775Z,3.43
2019-05-21T12:06:03.552Z,3.60
2019-05-21T12:08:31.000Z,3.30
2019-05-21T12:10:58.320Z,3.47
2019-05-21T12:13:25.728Z,3.70
2019-05-21T12:15:52.816Z,3.80
2019-05-21T12:18:21.098Z,3.57
2019-05-21T12:20:48.691Z,4.10
2019-05-21T12:23:18.507Z,4.13
2019-05-21T12:25:45.841Z,3.53
2019-05-21T12:28:14.063Z,4.23
2019-05-21T12:30:41.639Z,4.10
2019-05-21T12:33:08.574Z,4.10
2019-05-21T12:35:36.978Z,4.53
2019-05-21T12:38:04.318Z,3.67
2019-05-21T12:40:31.754Z,4.60
2019-05-21T12:43:01.116Z,4.43
2019-05-21T12:45:28.153Z,4.17
2019-05-21T12:47:55.289Z,4.27
2019-05-21T12:50:23.893Z,4.57
2019-05-21T12:52:51.039Z,4.50
2019-05-21T12:55:20.070Z,5.57
2019-05-21T12:57:47.193Z,32.93
2019-05-21T13:00:15.017Z,4.57
2019-05-21T13:02:44.618Z,3.73
2019-05-21T13:05:12.009Z,3.67
2019-05-21T13:07:40.376Z,4.17
2019-05-21T13:10:12.913Z,4.00
2019-05-21T13:12:43.486Z,3.70
2019-05-21T13:15:12.562Z,3.70
2019-05-21T13:17:40.657Z,4.10
2019-05-21T13:20:08.823Z,3.70
2019-05-21T13:22:36.776Z,4.30
2019-05-21T13:25:05.479Z,4.00
2019-05-21T13:27:33.383Z,3.43
2019-05-21T13:30:02.002Z,3.77
2019-05-21T13:32:31.331Z,3.70
2019-05-21T13:34:58.897Z,3.10
2019-05-21T13:37:28.510Z,3.23
2019-05-21T13:39:56.220Z,3.47
2019-05-21T13:42:25.039Z,3.70
2019-05-21T13:44:52.348Z,3.37
2019-05-21T13:47:19.729Z,3.50
2019-05-21T13:49:48.233Z,3.27
2019-05-21T13:52:15.377Z,3.67
2019-05-21T13:54:44.500Z,3.40
2019-05-21T13:57:13.162Z,3.70
2019-05-21T13:59:40.242Z,3.73
2019-05-21T14:02:10.855Z,3.60
2019-05-21T14:04:38.178Z,3.83
2019-05-21T14:07:08.093Z,3.60
2019-05-21T14:09:35.627Z,4.10
2019-05-21T14:12:03.449Z,8.73
2019-05-21T14:14:31.230Z,4.83
2019-05-21T14:16:58.927Z,4.00
2019-05-21T14:19:27.547Z,4.10
2019-05-21T14:21:55.133Z,4.10
2019-05-21T14:24:22.718Z,4.10
2019-05-21T14:26:52.368Z,4.00
2019-05-21T14:29:19.790Z,3.93
2019-05-21T14:31:47.620Z,4.73
2019-05-21T14:34:14.919Z,3.90
2019-05-21T14:36:43.129Z,3.87
2019-05-21T14:39:14.707Z,4.30
2019-05-21T14:41:42.034Z,4.10
2019-05-21T14:44:13.572Z,4.10
2019-05-21T14:46:41.101Z,4.30
2019-05-21T14:49:09.253Z,3.60
2019-05-21T14:51:36.913Z,3.63
2019-05-21T14:54:05.036Z,3.97
2019-05-21T14:56:33.470Z,3.70
2019-05-21T14:59:01.653Z,3.60
2019-05-21T15:01:29.615Z,3.13
2019-05-21T15:03:57.489Z,3.60
2019-05-21T15:06:25.337Z,3.03
2019-05-21T15:08:53.623Z,3.20
2019-05-21T15:11:21.208Z,3.47
2019-05-21T15:13:48.740Z,3.80
2019-05-21T15:16:16.828Z,3.67
2019-05-21T15:18:44.472Z,3.90
2019-05-21T15:21:28.406Z,3.50
2019-05-21T15:23:56.931Z,3.10
2019-05-21T15:26:24.291Z,3.50
2019-05-21T15:28:52.408Z,3.27
2019-05-21T15:31:20.705Z,3.37
2019-05-21T15:33:48.121Z,3.23
2019-05-21T15:36:16.597Z,2.93
2019-05-21T15:38:50.314Z,3.30
2019-05-21T15:41:14.945Z,3.10
2019-05-21T15:43:42.298Z,3.00
2019-05-21T15:46:09.770Z,3.37
2019-05-21T15:48:39.520Z,3.23
2019-05-21T15:51:07.074Z,3.97
2019-05-21T15:53:36.001Z,2.90
2019-05-21T15:56:03.710Z,3.10
2019-05-21T15:58:31.162Z,3.70
2019-05-21T16:00:59.317Z,3.77
2019-05-21T16:03:27.829Z,3.70
2019-05-21T16:05:56.107Z,3.23
2019-05-21T16:08:23.513Z,3.60
2019-05-21T16:10:50.577Z,3.70
2019-05-21T16:13:19.770Z,3.60
2019-05-21T16:15:47.507Z,3.93
2019-05-21T16:18:14.657Z,3.57
2019-05-21T16:20:42.974Z,3.63
2019-05-21T16:23:10.293Z,3.70
2019-05-21T16:25:37.752Z,3.70
2019-05-21T16:28:05.019Z,3.70
2019-05-21T16:30:32.341Z,3.60
2019-05-21T16:33:03.549Z,3.97
2019-05-21T16:35:31.153Z,4.30
2019-05-21T16:37:58.352Z,4.03
2019-05-21T16:40:25.833Z,4.17
2019-05-21T16:42:53.108Z,3.97
2019-05-21T16:45:26.308Z,4.40
2019-05-21T16:47:54.574Z,4.30
2019-05-21T16:50:22.601Z,3.90
2019-05-21T16:52:50.168Z,4.00
2019-05-21T16:55:17.679Z,4.70
2019-05-21T16:57:51.417Z,4.63
2019-05-21T17:00:19.740Z,4.97
2019-05-21T17:02:47.525Z,5.10
2019-05-21T17:05:14.745Z,4.97
2019-05-21T17:07:44.119Z,5.77
2019-05-21T17:10:11.940Z,6.07
2019-05-21T17:12:39.397Z,5.80
2019-05-21T17:15:11.316Z,5.70
2019-05-21T17:17:38.389Z,6.13
2019-05-21T17:20:08.512Z,5.73
2019-05-21T17:22:36.256Z,14.90
2019-05-21T17:25:05.136Z,7.40
2019-05-21T17:27:33.319Z,6.80
2019-05-21T17:30:01.472Z,6.63
2019-05-21T17:32:28.842Z,6.70
2019-05-21T17:34:56.133Z,7.77
2019-05-21T17:37:23.330Z,6.93
2019-05-21T17:39:50.682Z,7.70
2019-05-21T17:42:17.841Z,7.63
2019-05-21T17:44:44.923Z,7.60
2019-05-21T17:47:12.077Z,7.20
2019-05-21T17:49:39.283Z,7.67
2019-05-21T17:52:06.474Z,7.87
2019-05-21T17:54:33.738Z,8.50
2019-05-21T17:57:01.263Z,8.80
2019-05-21T17:59:28.705Z,9.00
2019-05-21T18:01:58.718Z,9.53
2019-05-21T18:04:27.062Z,9.20
2019-05-21T18:06:55.685Z,10.03
2019-05-21T18:09:23.515Z,10.10
2019-05-21T18:11:51.154Z,9.97
2019-05-21T18:14:18.291Z,10.67
2019-05-21T18:16:45.382Z,20.67
2019-05-21T18:19:13.605Z,22.23
2019-05-21T18:21:40.609Z,13.77
2019-05-21T18:24:08.196Z,11.77
2019-05-21T18:26:35.255Z,11.97
2019-05-21T18:29:02.391Z,13.37
2019-05-21T18:31:29.511Z,12.60
2019-05-21T18:33:56.766Z,12.40
2019-05-21T18:36:23.790Z,12.83
2019-05-21T18:38:50.955Z,14.10
2019-05-21T18:41:18.134Z,13.47
2019-05-21T18:43:45.298Z,14.50
2019-05-21T18:46:12.291Z,13.97
2019-05-21T18:48:39.394Z,14.13
2019-05-21T18:51:06.341Z,13.63
2019-05-21T18:53:33.484Z,14.47
2019-05-21T18:56:00.524Z,14.93
2019-05-21T18:58:27.532Z,14.53
2019-05-21T19:00:55.844Z,14.27
2019-05-21T19:03:26.368Z,14.67
2019-05-21T19:05:52.638Z,15.13
2019-05-21T19:08:19.800Z,14.80
2019-05-21T19:10:47.276Z,16.43
2019-05-21T19:13:15.096Z,16.43
2019-05-21T19:15:42.170Z,16.47
2019-05-21T19:18:09.706Z,16.93
2019-05-21T19:20:37.113Z,16.83
2019-05-21T19:23:04.714Z,16.70
2019-05-21T19:25:31.814Z,16.10
2019-05-21T19:27:58.791Z,17.47
2019-05-21T19:30:26.109Z,17.73
2019-05-21T19:32:53.347Z,17.40
2019-05-21T19:35:20.853Z,17.87
2019-05-21T19:37:48.502Z,17.53
2019-05-21T19:40:16.580Z,16.80
2019-05-21T19:42:54.278Z,18.80
2019-05-21T19:45:14.870Z,16.80
2019-05-21T19:47:42.363Z,17.23
2019-05-21T19:50:10.469Z,17.70
2019-05-21T19:52:38.368Z,26.57
2019-05-21T19:55:06.207Z,21.83
2019-05-21T19:57:34.805Z,18.47
2019-05-21T20:00:02.959Z,19.23
2019-05-21T20:02:30.367Z,18.13
2019-05-21T20:04:58.171Z,18.17
2019-05-21T20:07:26.507Z,17.27
2019-05-21T20:09:54.099Z,19.63
2019-05-21T20:12:23.244Z,18.83
2019-05-21T20:14:50.465Z,16.73
2019-05-21T20:17:19.801Z,19.17
2019-05-21T20:19:49.018Z,18.97
2019-05-21T20:22:17.066Z,18.77
2019-05-21T20:24:45.805Z,20.17
2019-05-21T20:27:14.198Z,19.73
2019-05-21T20:29:42.892Z,20.70
2019-05-21T20:32:12.326Z,20.10
2019-05-21T20:34:40.396Z,21.17
2019-05-21T20:37:10.210Z,20.00
2019-05-21T20:39:40.597Z,20.77
2019-05-21T20:42:09.402Z,20.30
2019-05-21T20:44:37.427Z,18.27
2019-05-21T20:47:05.616Z,19.97
2019-05-21T20:49:33.369Z,23.07
2019-05-21T20:52:17.373Z,21.37
2019-05-21T20:54:30.269Z,20.23
2019-05-21T20:56:58.095Z,20.20
2019-05-21T20:59:25.726Z,20.83
2019-05-21T21:01:53.277Z,20.73
2019-05-21T21:04:21.050Z,19.40
2019-05-21T21:06:48.481Z,20.47
2019-05-21T21:09:16.131Z,20.90
2019-05-21T21:11:44.089Z,22.57
2019-05-21T21:14:17.968Z,20.50
2019-05-21T21:16:42.847Z,21.73
2019-05-21T21:19:10.704Z,19.17
2019-05-21T21:21:39.177Z,21.17
2019-05-21T21:24:07.002Z,22.20
2019-05-21T21:26:34.592Z,21.07
2019-05-21T21:29:02.177Z,22.37
2019-05-21T21:31:29.928Z,23.33
2019-05-21T21:33:57.488Z,23.37
2019-05-21T21:36:24.757Z,22.50
2019-05-21T21:38:52.639Z,23.47
2019-05-21T21:41:21.592Z,20.50
2019-05-21T21:43:49.387Z,21.47
2019-05-21T21:46:17.222Z,21.10
2019-05-21T21:48:45.762Z,22.30
2019-05-21T21:51:13.364Z,23.17
2019-05-21T21:53:41.517Z,21.83
2019-05-21T21:56:08.782Z,22.60
2019-05-21T21:58:35.802Z,22.90
2019-05-21T22:01:42.483Z,21.97
2019-05-21T22:04:11.698Z,22.70
2019-05-21T22:06:40.794Z,21.07
2019-05-21T22:09:27.123Z,23.00
2019-05-21T22:11:56.261Z,21.80
2019-05-21T22:14:23.788Z,22.90
2019-05-21T22:16:52.009Z,22.60
2019-05-21T22:19:19.880Z,21.03
2019-05-21T22:21:47.237Z,20.83
2019-05-21T22:24:14.692Z,21.23
2019-05-21T22:26:42.465Z,21.10
2019-05-21T22:29:10.259Z,21.50
2019-05-21T22:31:37.404Z,19.97
2019-05-21T22:34:04.597Z,22.73
2019-05-21T22:36:31.998Z,20.13
2019-05-21T22:38:59.801Z,20.37
2019-05-21T22:41:27.351Z,21.30
2019-05-21T22:43:54.947Z,21.13
2019-05-21T22:46:22.560Z,20.93
2019-05-21T22:48:50.193Z,21.53
2019-05-21T22:51:17.791Z,21.33
2019-05-21T22:53:45.329Z,21.37
2019-05-21T22:56:12.603Z,22.93
2019-05-21T22:58:39.649Z,21.37
2019-05-21T23:01:09.352Z,21.50
2019-05-21T23:03:36.938Z,23.43
2019-05-21T23:06:04.251Z,22.77
2019-05-21T23:08:31.362Z,24.47
2019-05-21T23:10:58.551Z,23.73
2019-05-21T23:13:25.757Z,22.30
2019-05-21T23:15:52.898Z,20.03
2019-05-21T23:18:22.030Z,22.57
2019-05-21T23:21:08.451Z,19.80
2019-05-21T23:23:37.130Z,21.47
2019-05-21T23:26:05.230Z,26.80
2019-05-21T23:28:33.098Z,24.83
2019-05-21T23:31:01.555Z,23.83
2019-05-21T23:33:28.737Z,22.77
2019-05-21T23:35:56.215Z,22.93
2019-05-21T23:38:24.503Z,24.17
2019-05-21T23:40:51.551Z,25.80
2019-05-21T23:43:19.186Z,25.63
2019-05-21T23:45:46.744Z,24.33
2019-05-21T23:48:15.595Z,24.53
2019-05-21T23:50:43.169Z,28.90
2019-05-21T23:53:10.845Z,27.37
2019-05-21T23:55:38.240Z,26.40
2019-05-21T23:58:05.524Z,27.50
